BBY weather

Bambari Airport
Bambari, Ouaka, Central African Republic

Public forecast

Using degrees Celsius for public forecast. Weather courtesy of forecast.io.

METAR (pilot weather report)

Report is more than 6 hours old.

Retrieved 2010/06/15 05:00 UTC (9 years ago):

FEFM 150500Z /////KT CAVOK 24/23 Q////

TAF (pilot weather forecast)

Forecast is more than 12 hours old.

Closest forecast is Bangassou Airport, 142.6 nm (264.1 km) ESE. Retrieved 2016/01/24 12:33 UTC (3 years ago):

TAF FEFG 241100Z 2412/2518 32008KT CAVOK BECMG 2414/2416 3000 HZFU BECMG 2420/2422 CAVOK TEMPO 2504/2508 2000 BR PROB30 TEMPO 0800 FG